Taft, Ohio
Current Conditions -  °F | °C
As of 12:53 PM on Saturday 25 Oct 2014 (Local Time) from KLUK Reporting Station
Broken Clouds Broken Clouds  
Wind Chill: 66°   Ceiling: 2400
Heat Index: 66°   Visibility: 10mi
Dew Point: 55°   Wind: 8mph
Humidity: 68%   Direction: 230°SW
Pressure: 29.97"   Gusts: NA
Location:  39.2094°N, 84.3952°W
Report Text: KLUK 251653Z 23007KT 10SM BKN024 19/13 A2997 RMK AO2 SLP147 T01890128
Loading
Personal Weather Stations






























Interactive Weather Map New forecast layout! Learn more

10-Day Weather Forecast

Advertisements
Track Severe Weather on mobile